createdAt,value
2023-01-11T00:00:55.953Z,38.27
2023-01-11T00:03:23.257Z,50.13
2023-01-11T00:05:50.474Z,44.80
2023-01-11T00:08:19.217Z,43.07
2023-01-11T00:10:46.431Z,40.43
2023-01-11T00:13:14.711Z,35.77
2023-01-11T00:15:41.980Z,37.37
2023-01-11T00:18:09.572Z,34.30
2023-01-11T00:20:39.761Z,42.37
2023-01-11T00:23:07.152Z,32.57
2023-01-11T00:25:34.394Z,32.40
2023-01-11T00:28:01.538Z,35.30
2023-01-11T00:30:28.779Z,31.83
2023-01-11T00:32:59.481Z,26.93
2023-01-11T00:35:27.599Z,27.53
2023-01-11T00:37:55.223Z,30.97
2023-01-11T00:40:24.062Z,34.67
2023-01-11T00:43:10.242Z,32.70
2023-01-11T00:45:56.273Z,34.43
2023-01-11T00:48:23.551Z,30.67
2023-01-11T00:50:53.308Z,26.97
2023-01-11T00:53:20.523Z,28.90
2023-01-11T00:55:47.762Z,25.97
2023-01-11T00:58:15.907Z,31.47
2023-01-11T01:00:43.339Z,28.67
2023-01-11T01:03:10.717Z,26.30
2023-01-11T01:05:38.974Z,24.90
2023-01-11T01:08:06.542Z,27.03
2023-01-11T01:10:33.700Z,25.20
2023-01-11T01:13:19.544Z,32.30
2023-01-11T01:15:46.764Z,29.70
2023-01-11T01:18:14.179Z,28.80
2023-01-11T01:20:41.579Z,30.07
2023-01-11T01:23:08.927Z,35.93
2023-01-11T01:25:37.789Z,28.40
2023-01-11T01:28:05.173Z,29.70
2023-01-11T01:30:33.632Z,28.97
2023-01-11T01:33:00.860Z,28.90
2023-01-11T01:35:28.065Z,34.13
2023-01-11T01:37:55.203Z,26.13
2023-01-11T01:40:22.839Z,29.70
2023-01-11T01:42:53.953Z,31.17
2023-01-11T01:45:29.225Z,32.40
2023-01-11T01:48:03.116Z,29.07
2023-01-11T01:50:33.785Z,34.23
2023-01-11T01:53:06.269Z,35.70
2023-01-11T01:55:35.961Z,30.83
2023-01-11T01:58:05.507Z,30.40
2023-01-11T02:00:33.651Z,25.83
2023-01-11T02:03:02.530Z,27.40
2023-01-11T02:05:29.787Z,33.00
2023-01-11T02:07:58.918Z,30.67
2023-01-11T02:10:29.309Z,29.97
2023-01-11T02:13:05.555Z,30.73
2023-01-11T02:15:33.253Z,31.77
2023-01-11T02:18:00.431Z,26.90
2023-01-11T02:20:33.551Z,27.10
2023-01-11T02:23:19.249Z,32.60
2023-01-11T02:25:55.635Z,31.23
2023-01-11T02:28:41.423Z,27.27
2023-01-11T02:31:15.044Z,31.83
2023-01-11T02:33:48.215Z,28.40
2023-01-11T02:36:23.640Z,28.87
2023-01-11T02:39:03.019Z,29.27
2023-01-11T02:41:56.455Z,25.90
2023-01-11T02:45:02.035Z,24.73
2023-01-11T02:47:49.539Z,24.00
2023-01-11T02:50:31.915Z,25.23
2023-01-11T02:53:17.649Z,28.87
2023-01-11T02:55:51.792Z,27.73
2023-01-11T02:58:20.348Z,26.60
2023-01-11T03:00:48.151Z,25.67
2023-01-11T03:03:17.273Z,27.73
2023-01-11T03:05:47.091Z,23.10
2023-01-11T03:08:20.223Z,25.80
2023-01-11T03:11:06.302Z,25.63
2023-01-11T03:13:33.601Z,22.93
2023-01-11T03:16:19.686Z,27.27
2023-01-11T03:18:59.411Z,22.37
2023-01-11T03:21:32.776Z,20.03
2023-01-11T03:24:18.569Z,22.00
2023-01-11T03:26:46.128Z,24.30
2023-01-11T03:29:19.544Z,23.70
2023-01-11T03:31:55.932Z,23.40
2023-01-11T03:34:34.331Z,21.37
2023-01-11T03:37:07.999Z,25.17
2023-01-11T03:39:39.126Z,24.70
2023-01-11T03:42:08.247Z,23.23
2023-01-11T03:44:40.102Z,24.27
2023-01-11T03:47:09.246Z,22.03
2023-01-11T03:49:42.644Z,25.87
2023-01-11T03:52:12.565Z,28.87
2023-01-11T03:54:41.137Z,25.60
2023-01-11T03:57:10.612Z,23.97
2023-01-11T03:59:39.500Z,29.70
2023-01-11T04:02:15.147Z,22.40
2023-01-11T04:04:42.436Z,28.30
2023-01-11T04:07:09.633Z,22.20
2023-01-11T04:09:38.232Z,27.30
2023-01-11T04:12:05.739Z,21.93
2023-01-11T04:14:33.175Z,27.97
2023-01-11T04:17:00.509Z,20.47
2023-01-11T04:19:27.792Z,23.30
2023-01-11T04:21:55.016Z,20.47
2023-01-11T04:24:22.542Z,24.90
2023-01-11T04:26:49.740Z,25.47
2023-01-11T04:29:17.019Z,25.53
2023-01-11T04:31:44.238Z,19.67
2023-01-11T04:34:12.437Z,20.90
2023-01-11T04:36:39.653Z,21.63
2023-01-11T04:39:10.553Z,24.87
2023-01-11T04:41:57.020Z,22.03
2023-01-11T04:44:24.333Z,19.23
2023-01-11T04:46:51.573Z,20.03
2023-01-11T04:49:18.846Z,21.90
2023-01-11T04:51:46.184Z,20.83
2023-01-11T04:54:13.458Z,24.30
2023-01-11T04:56:40.678Z,25.40
2023-01-11T04:59:07.895Z,21.43
2023-01-11T05:01:35.093Z,22.50
2023-01-11T05:04:02.358Z,18.43
2023-01-11T05:06:29.632Z,20.73
2023-01-11T05:08:56.862Z,18.67
2023-01-11T05:11:24.058Z,24.50
2023-01-11T05:13:52.438Z,29.47
2023-01-11T05:16:24.455Z,26.37
2023-01-11T05:18:54.000Z,25.77
2023-01-11T05:21:22.546Z,31.60
2023-01-11T05:23:49.965Z,30.20
2023-01-11T05:26:23.155Z,28.27
2023-01-11T05:28:51.066Z,31.27
2023-01-11T05:31:18.818Z,34.63
2023-01-11T05:33:46.201Z,27.80
2023-01-11T05:36:17.630Z,24.40
2023-01-11T05:38:48.297Z,26.67
2023-01-11T05:41:16.320Z,27.80
2023-01-11T05:44:06.253Z,20.00
2023-01-11T05:46:34.207Z,29.40
2023-01-11T05:49:01.355Z,25.17
2023-01-11T05:51:32.782Z,22.33
2023-01-11T05:54:00.760Z,21.23
2023-01-11T05:56:28.339Z,26.03
2023-01-11T05:58:55.683Z,21.67
2023-01-11T06:01:23.842Z,22.40
2023-01-11T06:03:51.208Z,18.77
2023-01-11T06:06:19.486Z,22.53
2023-01-11T06:08:46.686Z,24.40
2023-01-11T06:11:14.864Z,23.70
2023-01-11T06:13:42.163Z,26.53
2023-01-11T06:16:16.464Z,23.07
2023-01-11T06:18:48.146Z,20.47
2023-01-11T06:21:16.155Z,20.40
2023-01-11T06:23:45.244Z,20.43
2023-01-11T06:26:14.271Z,22.80
2023-01-11T06:28:41.859Z,26.00
2023-01-11T06:31:09.256Z,25.30
2023-01-11T06:33:36.893Z,28.13
2023-01-11T06:36:06.354Z,18.27
2023-01-11T06:38:33.642Z,24.83
2023-01-11T06:41:01.484Z,20.13
2023-01-11T06:43:29.210Z,23.47
2023-01-11T06:45:56.622Z,19.57
2023-01-11T06:48:24.384Z,20.20
2023-01-11T06:50:52.809Z,18.43
2023-01-11T06:53:19.970Z,22.20
2023-01-11T06:55:51.262Z,18.40
2023-01-11T06:58:18.726Z,21.50
2023-01-11T07:00:46.242Z,18.10
2023-01-11T07:03:13.657Z,24.83
2023-01-11T07:05:41.228Z,16.93
2023-01-11T07:08:08.815Z,23.47
2023-01-11T07:10:36.043Z,19.97
2023-01-11T07:13:03.487Z,21.77
2023-01-11T07:15:30.934Z,17.13
2023-01-11T07:17:58.934Z,25.90
2023-01-11T07:20:26.354Z,23.30
2023-01-11T07:22:57.290Z,23.27
2023-01-11T07:25:25.710Z,25.73
2023-01-11T07:28:03.014Z,19.83
2023-01-11T07:30:31.263Z,18.33
2023-01-11T07:32:59.159Z,25.73
2023-01-11T07:35:28.162Z,18.80
2023-01-11T07:37:56.174Z,25.37
2023-01-11T07:40:23.435Z,25.10
2023-01-11T07:43:09.929Z,22.47
2023-01-11T07:45:45.464Z,22.23
2023-01-11T07:48:13.605Z,21.37
2023-01-11T07:50:44.233Z,18.43
2023-01-11T07:53:12.327Z,18.33
2023-01-11T07:55:40.271Z,17.27
2023-01-11T07:58:07.900Z,17.17
2023-01-11T08:00:35.127Z,19.30
2023-01-11T08:03:03.022Z,18.13
2023-01-11T08:05:30.375Z,21.37
2023-01-11T08:07:57.783Z,18.43
2023-01-11T08:10:25.269Z,20.07
2023-01-11T08:13:11.401Z,19.47
2023-01-11T08:15:42.350Z,17.63
2023-01-11T08:18:09.806Z,24.97
2023-01-11T08:20:36.949Z,23.90
2023-01-11T08:23:07.945Z,25.40
2023-01-11T08:25:35.403Z,20.40
2023-01-11T08:28:03.404Z,18.03
2023-01-11T08:30:30.671Z,18.30
2023-01-11T08:32:58.044Z,22.60
2023-01-11T08:35:26.000Z,22.67
2023-01-11T08:37:53.312Z,22.13
2023-01-11T08:40:23.717Z,20.43
2023-01-11T08:42:54.795Z,19.57
2023-01-11T08:45:22.226Z,19.53
2023-01-11T08:47:50.879Z,22.73
2023-01-11T08:50:18.727Z,21.20
2023-01-11T08:52:46.814Z,21.37
2023-01-11T08:55:13.998Z,22.13
2023-01-11T08:57:41.165Z,15.93
2023-01-11T09:00:09.100Z,16.80
2023-01-11T09:02:36.327Z,17.53
2023-01-11T09:05:03.637Z,16.03
2023-01-11T09:07:30.864Z,19.90
2023-01-11T09:09:58.026Z,18.23
2023-01-11T09:12:27.109Z,23.40
2023-01-11T09:14:54.298Z,22.70
2023-01-11T09:17:21.479Z,19.50
2023-01-11T09:19:48.831Z,18.33
2023-01-11T09:22:16.264Z,22.43
2023-01-11T09:24:43.460Z,16.20
2023-01-11T09:27:11.864Z,16.30
2023-01-11T09:29:39.238Z,17.37
2023-01-11T09:32:06.760Z,20.07
2023-01-11T09:34:35.074Z,20.17
2023-01-11T09:37:03.964Z,21.53
2023-01-11T09:39:31.275Z,18.23
2023-01-11T09:42:01.900Z,20.70
2023-01-11T09:44:29.918Z,22.83
2023-01-11T09:47:17.632Z,18.70
2023-01-11T09:49:51.974Z,20.27
2023-01-11T09:52:25.160Z,22.43
2023-01-11T09:54:52.757Z,18.23
2023-01-11T09:57:31.850Z,17.40
2023-01-11T10:00:14.603Z,19.00
2023-01-11T10:02:41.710Z,20.57
2023-01-11T10:05:29.794Z,18.67
2023-01-11T10:18:22.721Z,14.97
2023-01-11T10:18:26.397Z,14.33
2023-01-11T10:20:01.402Z,15.80
2023-01-11T10:22:36.899Z,16.17
2023-01-11T10:25:16.939Z,20.97
2023-01-11T10:27:56.817Z,20.43
2023-01-11T10:30:42.067Z,16.67
2023-01-11T10:33:30.405Z,16.00
2023-01-11T10:36:06.878Z,18.17
2023-01-11T10:39:03.381Z,17.67
2023-01-11T10:41:38.725Z,13.40
2023-01-11T10:44:09.857Z,17.20
2023-01-11T10:46:39.944Z,16.73
2023-01-11T10:49:19.110Z,18.90
2023-01-11T10:51:49.112Z,18.57
2023-01-11T10:54:18.243Z,17.83
2023-01-11T10:57:08.141Z,17.40
2023-01-11T10:59:52.450Z,21.87
2023-01-11T11:02:31.923Z,20.77
2023-01-11T11:05:08.327Z,17.50
2023-01-11T11:07:41.516Z,24.10
2023-01-11T11:10:18.996Z,22.03
2023-01-11T11:13:07.305Z,16.47
2023-01-11T11:15:43.148Z,17.63
2023-01-11T11:18:11.181Z,17.53
2023-01-11T11:20:38.394Z,17.07
2023-01-11T11:23:05.552Z,14.23
2023-01-11T11:25:34.018Z,15.60
2023-01-11T11:28:06.137Z,21.20
2023-01-11T11:30:38.587Z,14.83
2023-01-11T11:33:08.659Z,13.70
2023-01-11T11:35:41.243Z,13.13
2023-01-11T11:38:17.100Z,14.50
2023-01-11T11:40:44.263Z,18.77
2023-01-11T11:43:14.612Z,13.53
2023-01-11T11:45:51.140Z,14.70
2023-01-11T11:48:19.085Z,14.20
2023-01-11T11:50:46.828Z,13.73
2023-01-11T11:53:37.017Z,16.77
2023-01-11T11:56:27.586Z,17.17
2023-01-11T11:58:55.274Z,16.07
2023-01-11T12:01:30.887Z,17.20
2023-01-11T12:03:59.625Z,14.47
2023-01-11T12:06:30.225Z,11.27
2023-01-11T12:08:58.185Z,12.20
2023-01-11T12:11:32.588Z,16.17
2023-01-11T12:14:02.417Z,14.37
2023-01-11T12:16:36.225Z,20.17
2023-01-11T12:19:03.484Z,14.63
2023-01-11T12:21:30.849Z,18.80
2023-01-11T12:24:09.623Z,15.97
2023-01-11T12:26:39.637Z,18.00
2023-01-11T12:29:22.262Z,15.90
2023-01-11T12:31:54.710Z,13.37
2023-01-11T12:34:21.931Z,22.17
2023-01-11T12:37:00.721Z,21.37
2023-01-11T12:39:30.650Z,21.07
2023-01-11T12:42:00.590Z,23.87
2023-01-11T12:44:37.048Z,23.30
2023-01-11T12:47:17.980Z,20.20
2023-01-11T12:50:00.791Z,19.53
2023-01-11T12:52:29.261Z,17.40
2023-01-11T12:55:12.677Z,18.50
2023-01-11T12:58:07.886Z,15.50
2023-01-11T13:00:44.161Z,19.93
2023-01-11T13:03:33.470Z,13.00
2023-01-11T13:06:09.806Z,17.73
2023-01-11T13:08:57.225Z,20.87
2023-01-11T13:11:36.495Z,16.63
2023-01-11T13:14:03.731Z,25.33
2023-01-11T13:16:40.113Z,20.97
2023-01-11T13:19:32.931Z,18.40
2023-01-11T13:22:04.494Z,19.40
2023-01-11T13:24:32.471Z,17.97
2023-01-11T13:27:02.005Z,16.47
2023-01-11T13:29:33.745Z,21.97
2023-01-11T13:32:03.226Z,17.53
2023-01-11T13:34:30.407Z,14.63
2023-01-11T13:37:02.722Z,19.47
2023-01-11T13:39:35.875Z,16.70
2023-01-11T13:42:04.766Z,16.53
2023-01-11T13:44:36.917Z,18.13
2023-01-11T13:47:14.107Z,20.17
2023-01-11T13:49:54.727Z,14.37
2023-01-11T13:52:40.829Z,17.90
2023-01-11T13:55:25.968Z,18.97
2023-01-11T13:57:59.155Z,22.93
2023-01-11T14:00:26.435Z,16.23
2023-01-11T14:02:56.654Z,25.63
2023-01-11T14:05:23.960Z,19.93
2023-01-11T14:08:01.691Z,23.03
2023-01-11T14:10:38.744Z,21.90
2023-01-11T14:13:57.914Z,20.40
2023-01-11T14:16:34.580Z,21.47
2023-01-11T14:19:32.923Z,14.93
2023-01-11T14:22:06.090Z,19.40
2023-01-11T14:24:39.416Z,21.83
2023-01-11T14:27:25.472Z,18.77
2023-01-11T14:30:04.264Z,19.27
2023-01-11T14:32:34.335Z,23.30
2023-01-11T14:35:20.403Z,27.20
2023-01-11T14:38:12.793Z,20.23
2023-01-11T14:41:03.225Z,18.50
2023-01-11T14:43:39.463Z,19.93
2023-01-11T14:46:09.447Z,20.23
2023-01-11T14:48:55.312Z,16.03
2023-01-11T14:51:33.779Z,19.13
2023-01-11T14:54:06.754Z,22.70
2023-01-11T14:56:36.660Z,17.63
2023-01-11T14:59:05.012Z,19.90
2023-01-11T15:01:52.140Z,24.27
2023-01-11T15:04:22.786Z,24.90
2023-01-11T15:06:55.117Z,20.87
2023-01-11T15:09:40.806Z,24.77
2023-01-11T15:12:12.308Z,25.20
2023-01-11T15:14:39.722Z,35.20
2023-01-11T15:17:25.483Z,26.00
2023-01-11T15:19:53.481Z,19.13
2023-01-11T15:22:29.807Z,20.77
2023-01-11T15:25:02.024Z,24.10
2023-01-11T15:27:37.451Z,24.60
2023-01-11T15:30:07.570Z,27.83
2023-01-11T15:32:36.199Z,25.73
2023-01-11T15:35:31.952Z,33.70
2023-01-11T15:38:18.125Z,32.03
2023-01-11T15:40:50.295Z,28.33
2023-01-11T15:43:35.982Z,36.83
2023-01-11T15:46:40.672Z,33.10
2023-01-11T15:49:20.175Z,35.60
2023-01-11T15:52:06.227Z,33.33
2023-01-11T15:54:48.643Z,26.00
2023-01-11T15:57:15.784Z,27.00
2023-01-11T16:00:01.712Z,22.40
2023-01-11T16:02:28.944Z,30.13
2023-01-11T16:05:16.385Z,23.77
2023-01-11T16:07:55.180Z,30.10
2023-01-11T16:10:39.271Z,28.30
2023-01-11T16:13:25.251Z,28.03
2023-01-11T16:15:58.677Z,34.63
2023-01-11T16:18:31.129Z,33.70
2023-01-11T16:21:03.721Z,38.43
2023-01-11T16:23:34.208Z,34.50
2023-01-11T16:26:02.142Z,27.37
2023-01-11T16:28:29.389Z,28.10
2023-01-11T16:31:01.120Z,25.73
2023-01-11T16:33:31.821Z,23.93
2023-01-11T16:36:13.294Z,33.67
2023-01-11T16:38:48.591Z,34.87
2023-01-11T16:41:16.649Z,50.37
2023-01-11T16:43:49.518Z,34.77
2023-01-11T16:46:30.722Z,37.80
2023-01-11T16:49:17.338Z,26.73
2023-01-11T16:51:45.614Z,26.20
2023-01-11T16:54:20.968Z,32.67
2023-01-11T16:56:49.820Z,25.47
2023-01-11T16:59:19.043Z,28.10
2023-01-11T17:01:56.632Z,23.40
2023-01-11T17:04:28.884Z,26.30
2023-01-11T17:06:56.822Z,33.30
2023-01-11T17:09:25.896Z,35.73
2023-01-11T17:11:53.550Z,36.63
2023-01-11T17:14:23.466Z,43.13
2023-01-11T17:16:52.356Z,39.70
2023-01-11T17:19:24.481Z,44.73
2023-01-11T17:21:53.209Z,41.20
2023-01-11T17:24:24.922Z,33.17
2023-01-11T17:27:02.367Z,36.80
2023-01-11T17:29:34.429Z,35.33
2023-01-11T17:32:03.406Z,36.90
2023-01-11T17:34:35.101Z,49.97
2023-01-11T17:37:03.039Z,45.83
2023-01-11T17:39:33.569Z,44.80
2023-01-11T17:42:29.116Z,38.60
2023-01-11T17:45:14.911Z,38.93
2023-01-11T17:47:43.194Z,40.07
2023-01-11T17:50:21.470Z,34.60
2023-01-11T17:52:54.719Z,33.13
2023-01-11T17:55:25.934Z,33.30
2023-01-11T17:58:12.058Z,39.97
2023-01-11T18:00:39.530Z,37.70
2023-01-11T18:03:10.777Z,33.17
2023-01-11T18:05:38.050Z,47.43
2023-01-11T18:08:09.649Z,44.10
2023-01-11T18:10:39.235Z,39.50
2023-01-11T18:13:06.595Z,28.77
2023-01-11T18:15:35.364Z,34.23
2023-01-11T18:18:02.591Z,29.63
2023-01-11T18:20:29.886Z,31.03
2023-01-11T18:22:59.025Z,32.37
2023-01-11T18:25:27.570Z,24.60
2023-01-11T18:28:13.167Z,25.83
2023-01-11T18:30:41.355Z,19.13
2023-01-11T18:33:27.969Z,20.23
2023-01-11T18:35:58.072Z,19.47
2023-01-11T18:38:27.072Z,18.50
2023-01-11T18:40:54.905Z,19.57
2023-01-11T18:43:32.036Z,19.30
2023-01-11T18:45:59.249Z,20.77
2023-01-11T18:48:26.635Z,19.23
2023-01-11T18:50:54.598Z,19.27
2023-01-11T18:53:23.674Z,20.83
2023-01-11T18:55:50.830Z,26.83
2023-01-11T18:58:18.144Z,26.90
2023-01-11T19:00:45.334Z,27.37
2023-01-11T19:03:12.748Z,34.93
2023-01-11T19:05:40.199Z,34.97
2023-01-11T19:08:07.823Z,29.67
2023-01-11T19:10:35.310Z,28.27
2023-01-11T19:13:02.779Z,21.77
2023-01-11T19:15:30.052Z,25.40
2023-01-11T19:17:57.322Z,19.17
2023-01-11T19:20:24.629Z,19.73
2023-01-11T19:22:51.985Z,21.20
2023-01-11T19:25:19.342Z,25.80
2023-01-11T19:27:46.522Z,20.80
2023-01-11T19:30:14.259Z,19.27
2023-01-11T19:32:41.428Z,27.17
2023-01-11T19:35:08.807Z,28.53
2023-01-11T19:37:37.683Z,29.17
2023-01-11T19:40:05.826Z,38.17
2023-01-11T19:42:33.056Z,29.17
2023-01-11T19:45:00.519Z,27.63
2023-01-11T19:47:27.865Z,25.00
2023-01-11T19:49:58.875Z,21.27
2023-01-11T19:52:26.069Z,26.13
2023-01-11T19:54:56.850Z,39.47
2023-01-11T19:57:24.026Z,23.27
2023-01-11T19:59:51.408Z,23.50
2023-01-11T20:02:19.857Z,20.07
2023-01-11T20:04:47.114Z,22.37
2023-01-11T20:07:14.931Z,21.93
2023-01-11T20:09:42.350Z,20.53
2023-01-11T20:12:11.469Z,24.30
2023-01-11T20:14:40.451Z,20.43
2023-01-11T20:17:08.134Z,22.57
2023-01-11T20:19:35.312Z,20.13
2023-01-11T20:22:49.823Z,19.83
2023-01-11T20:25:17.924Z,21.33
2023-01-11T20:27:45.457Z,20.93
2023-01-11T20:30:15.967Z,23.80
2023-01-11T20:32:43.233Z,22.47
2023-01-11T20:35:11.025Z,19.47
2023-01-11T20:37:38.481Z,20.43
2023-01-11T20:40:05.930Z,24.40
2023-01-11T20:42:34.205Z,18.83
2023-01-11T20:45:01.472Z,19.40
2023-01-11T20:47:28.690Z,20.57
2023-01-11T20:49:55.896Z,22.93
2023-01-11T20:52:23.197Z,19.27
2023-01-11T20:54:50.363Z,19.57
2023-01-11T20:57:17.594Z,21.33
2023-01-11T20:59:44.862Z,19.83
2023-01-11T21:02:13.681Z,18.83
2023-01-11T21:04:41.077Z,19.20
2023-01-11T21:07:08.255Z,19.90
2023-01-11T21:09:35.715Z,18.63
2023-01-11T21:12:03.052Z,17.53
2023-01-11T21:14:30.569Z,23.07
2023-01-11T21:16:57.958Z,18.93
2023-01-11T21:19:25.800Z,17.83
2023-01-11T21:21:52.991Z,17.90
2023-01-11T21:24:20.955Z,17.63
2023-01-11T21:26:48.366Z,16.13
2023-01-11T21:29:15.821Z,15.10
2023-01-11T21:31:43.120Z,15.20
2023-01-11T21:34:13.599Z,15.33
2023-01-11T21:36:41.211Z,16.40
2023-01-11T21:39:09.418Z,17.60
2023-01-11T21:41:55.207Z,17.87
2023-01-11T21:44:42.622Z,16.97
2023-01-11T21:47:09.830Z,19.37
2023-01-11T21:49:37.055Z,17.23
2023-01-11T21:52:04.323Z,17.20
2023-01-11T21:54:31.557Z,17.83
2023-01-11T21:56:58.696Z,19.97
2023-01-11T21:59:26.022Z,22.03
2023-01-11T22:01:53.210Z,15.07
2023-01-11T22:04:21.116Z,15.87
2023-01-11T22:06:53.914Z,17.20
2023-01-11T22:09:22.200Z,16.27
2023-01-11T22:11:50.949Z,20.10
2023-01-11T22:14:18.129Z,21.00
2023-01-11T22:16:45.358Z,17.70
2023-01-11T22:19:12.593Z,15.93
2023-01-11T22:21:40.127Z,13.50
2023-01-11T22:24:10.246Z,15.80
2023-01-11T22:26:39.066Z,13.97
2023-01-11T22:29:16.607Z,14.47
2023-01-11T22:31:54.760Z,15.53
2023-01-11T22:34:22.136Z,16.00
2023-01-11T22:36:49.590Z,17.37
2023-01-11T22:39:19.308Z,17.63
2023-01-11T22:41:47.055Z,16.40
2023-01-11T22:44:14.320Z,15.17
2023-01-11T22:46:42.024Z,16.03
2023-01-11T22:49:09.548Z,17.43
2023-01-11T22:51:36.772Z,15.57
2023-01-11T22:54:04.171Z,16.17
2023-01-11T22:56:31.750Z,15.87
2023-01-11T22:58:58.924Z,13.77
2023-01-11T23:01:30.384Z,15.20
2023-01-11T23:03:58.109Z,16.13
2023-01-11T23:06:26.527Z,14.33
2023-01-11T23:08:54.274Z,13.53
2023-01-11T23:11:42.514Z,14.37
2023-01-11T23:14:10.909Z,17.13
2023-01-11T23:16:38.156Z,16.20
2023-01-11T23:19:06.089Z,16.77
2023-01-11T23:21:33.259Z,15.80
2023-01-11T23:24:03.808Z,15.40
2023-01-11T23:26:31.191Z,15.63
2023-01-11T23:28:58.390Z,15.73
2023-01-11T23:31:26.370Z,17.13
2023-01-11T23:33:55.023Z,16.00
2023-01-11T23:36:23.341Z,15.33
2023-01-11T23:38:50.603Z,15.37
2023-01-11T23:41:37.619Z,17.23
2023-01-11T23:44:05.547Z,18.60
2023-01-11T23:46:51.624Z,13.90
2023-01-11T23:49:18.820Z,15.20
2023-01-11T23:51:46.044Z,16.47
2023-01-11T23:54:13.671Z,14.97
2023-01-11T23:56:40.855Z,14.73
2023-01-11T23:59:08.353Z,14.93
